createdAt,value
2022-11-17T00:01:52.959Z,16.55
2022-11-17T00:04:26.163Z,17.17
2022-11-17T00:06:56.999Z,18.55
2022-11-17T00:09:29.965Z,20.95
2022-11-17T00:12:22.459Z,27.67
2022-11-17T00:14:54.462Z,22.85
2022-11-17T00:17:25.802Z,20.85
2022-11-17T00:20:14.795Z,17.52
2022-11-17T00:22:45.574Z,18.38
2022-11-17T00:25:16.737Z,16.13
2022-11-17T00:27:47.648Z,23.27
2022-11-17T00:30:38.300Z,15.93
2022-11-17T00:33:28.764Z,18.58
2022-11-17T00:35:59.360Z,19.45
2022-11-17T00:38:30.220Z,18.65
2022-11-17T00:41:01.329Z,18.88
2022-11-17T00:43:31.719Z,21.10
2022-11-17T00:46:02.581Z,22.80
2022-11-17T00:48:36.286Z,22.45
2022-11-17T00:51:07.953Z,22.25
2022-11-17T00:53:38.510Z,22.13
2022-11-17T00:56:11.916Z,23.40
2022-11-17T00:58:42.388Z,25.88
2022-11-17T01:01:13.492Z,23.63
2022-11-17T01:03:44.632Z,23.17
2022-11-17T01:06:21.279Z,17.50
2022-11-17T01:08:53.124Z,24.40
2022-11-17T01:11:23.926Z,26.13
2022-11-17T01:13:58.211Z,20.65
2022-11-17T01:16:30.419Z,24.50
2022-11-17T01:19:04.395Z,17.98
2022-11-17T01:21:35.848Z,16.48
2022-11-17T01:24:07.021Z,29.13
2022-11-17T01:26:38.480Z,14.27
2022-11-17T01:29:10.120Z,16.90
2022-11-17T01:31:44.350Z,17.52
2022-11-17T01:34:15.187Z,16.08
2022-11-17T01:37:04.945Z,24.38
2022-11-17T01:39:35.560Z,20.38
2022-11-17T01:42:11.600Z,18.95
2022-11-17T01:44:56.283Z,19.50
2022-11-17T01:47:56.583Z,22.35
2022-11-17T01:50:41.493Z,29.17
2022-11-17T01:53:16.334Z,29.77
2022-11-17T01:55:53.247Z,29.15
2022-11-17T01:58:30.317Z,37.75
2022-11-17T02:01:00.684Z,29.80
2022-11-17T02:03:35.484Z,30.40
2022-11-17T02:06:25.766Z,27.42
2022-11-17T02:08:56.810Z,27.58
2022-11-17T02:11:27.738Z,24.10
2022-11-17T02:13:58.947Z,25.15
2022-11-17T02:16:29.244Z,29.77
2022-11-17T02:18:59.938Z,31.95
2022-11-17T02:21:54.082Z,24.70
2022-11-17T02:24:38.697Z,28.08
2022-11-17T02:27:27.293Z,33.75
2022-11-17T02:30:05.381Z,37.35
2022-11-17T02:32:54.143Z,32.88
2022-11-17T02:35:36.696Z,32.65
2022-11-17T02:38:25.040Z,38.03
2022-11-17T02:41:31.041Z,32.80
2022-11-17T02:44:26.389Z,32.65
2022-11-17T02:47:03.364Z,26.77
2022-11-17T02:49:41.659Z,22.85
2022-11-17T02:52:12.319Z,27.98
2022-11-17T02:54:43.171Z,20.73
2022-11-17T02:57:30.496Z,24.73
2022-11-17T03:00:05.583Z,21.92
2022-11-17T03:02:52.586Z,22.42
2022-11-17T03:06:00.706Z,20.13
2022-11-17T03:08:52.006Z,19.77
2022-11-17T03:11:30.001Z,16.02
2022-11-17T03:14:11.316Z,18.27
2022-11-17T03:17:11.655Z,17.95
2022-11-17T03:20:09.276Z,21.02
2022-11-17T03:22:56.994Z,20.70
2022-11-17T03:25:32.916Z,25.48
2022-11-17T03:28:07.770Z,20.80
2022-11-17T03:30:41.006Z,23.05
2022-11-17T03:33:21.124Z,18.98
2022-11-17T03:36:02.969Z,17.20
2022-11-17T03:38:39.054Z,18.25
2022-11-17T03:41:11.146Z,19.42
2022-11-17T03:43:42.649Z,19.40
2022-11-17T03:46:16.498Z,18.50
2022-11-17T03:49:02.100Z,16.33
2022-11-17T03:51:34.445Z,19.13
2022-11-17T03:54:05.662Z,17.27
2022-11-17T03:56:45.545Z,14.27
2022-11-17T03:59:22.543Z,16.10
2022-11-17T04:01:53.661Z,10.43
2022-11-17T04:04:24.678Z,11.75
2022-11-17T04:06:55.649Z,8.90
2022-11-17T04:09:29.640Z,11.63
2022-11-17T04:12:18.959Z,10.75
2022-11-17T04:15:07.349Z,8.75
2022-11-17T04:17:38.969Z,9.85
2022-11-17T04:20:10.479Z,11.95
2022-11-17T04:22:41.055Z,14.15
2022-11-17T04:25:31.691Z,10.57
2022-11-17T04:28:21.066Z,11.57
2022-11-17T04:30:51.481Z,11.15
2022-11-17T04:33:22.136Z,14.38
2022-11-17T04:35:52.643Z,12.93
2022-11-17T04:38:23.432Z,8.88
2022-11-17T04:41:12.945Z,9.07
2022-11-17T04:43:44.359Z,8.80
2022-11-17T04:46:15.265Z,13.00
2022-11-17T04:48:46.449Z,11.35
2022-11-17T04:51:18.460Z,7.63
2022-11-17T04:53:50.031Z,16.85
2022-11-17T04:56:21.975Z,10.63
2022-11-17T04:58:53.188Z,10.13
2022-11-17T05:01:25.197Z,10.10
2022-11-17T05:03:56.373Z,9.82
2022-11-17T05:06:27.918Z,7.03
2022-11-17T05:08:58.490Z,8.30
2022-11-17T05:11:48.292Z,9.77
2022-11-17T05:14:22.022Z,7.93
2022-11-17T05:17:12.018Z,8.27
2022-11-17T05:19:47.929Z,6.93
2022-11-17T05:22:38.940Z,9.65
2022-11-17T05:25:10.161Z,28.38
2022-11-17T05:27:40.871Z,8.48
2022-11-17T05:30:12.405Z,8.27
2022-11-17T05:32:43.229Z,8.25
2022-11-17T05:35:13.628Z,8.25
2022-11-17T05:37:44.513Z,6.65
2022-11-17T05:40:14.851Z,4.75
2022-11-17T05:42:45.737Z,8.68
2022-11-17T05:45:16.794Z,7.72
2022-11-17T05:47:47.407Z,11.85
2022-11-17T05:50:20.164Z,20.00
2022-11-17T05:52:50.658Z,8.77
2022-11-17T05:55:21.631Z,6.88
2022-11-17T05:57:52.967Z,6.82
2022-11-17T06:00:23.575Z,9.02
2022-11-17T06:03:01.172Z,10.30
2022-11-17T06:05:32.529Z,6.20
2022-11-17T06:08:03.699Z,6.65
2022-11-17T06:10:36.051Z,6.35
2022-11-17T06:13:06.900Z,11.65
2022-11-17T06:15:38.003Z,8.43
2022-11-17T06:18:13.151Z,6.32
2022-11-17T06:20:49.661Z,14.43
2022-11-17T06:23:22.214Z,9.10
2022-11-17T06:25:53.199Z,8.38
2022-11-17T06:28:24.218Z,12.98
2022-11-17T06:30:55.318Z,9.98
2022-11-17T06:33:26.971Z,26.95
2022-11-17T06:35:58.499Z,14.82
2022-11-17T06:38:30.356Z,16.48
2022-11-17T06:41:01.026Z,7.85
2022-11-17T06:43:33.600Z,8.07
2022-11-17T06:46:06.571Z,6.43
2022-11-17T06:48:40.987Z,7.88
2022-11-17T06:51:11.574Z,9.23
2022-11-17T06:53:42.686Z,7.50
2022-11-17T06:56:15.008Z,7.95
2022-11-17T06:58:46.285Z,10.63
2022-11-17T07:01:19.916Z,13.55
2022-11-17T07:03:50.576Z,17.35
2022-11-17T07:06:21.304Z,13.77
2022-11-17T07:08:52.711Z,18.05
2022-11-17T07:11:23.078Z,20.58
2022-11-17T07:13:54.028Z,15.85
2022-11-17T07:16:24.603Z,18.33
2022-11-17T07:18:56.216Z,13.80
2022-11-17T07:21:27.739Z,7.60
2022-11-17T07:23:58.057Z,11.05
2022-11-17T07:26:29.281Z,8.07
2022-11-17T07:28:59.679Z,10.38
2022-11-17T07:31:30.561Z,6.53
2022-11-17T07:34:00.956Z,9.65
2022-11-17T07:36:31.616Z,6.10
2022-11-17T07:39:02.571Z,8.02
2022-11-17T07:41:34.080Z,12.18
2022-11-17T07:44:05.183Z,6.93
2022-11-17T07:46:36.842Z,6.40
2022-11-17T07:49:07.476Z,9.20
2022-11-17T07:51:38.094Z,10.73
2022-11-17T07:54:08.491Z,10.45
2022-11-17T07:56:39.112Z,7.43
2022-11-17T07:59:09.960Z,10.65
2022-11-17T08:01:41.048Z,6.50
2022-11-17T08:04:12.640Z,6.82
2022-11-17T08:06:42.956Z,6.15
2022-11-17T08:09:15.258Z,9.02
2022-11-17T08:11:47.214Z,7.70
2022-11-17T08:14:17.961Z,8.00
2022-11-17T08:16:48.901Z,7.93
2022-11-17T08:19:19.309Z,8.48
2022-11-17T08:21:51.896Z,9.05
2022-11-17T08:24:22.275Z,8.65
2022-11-17T08:26:54.644Z,8.93
2022-11-17T08:29:26.287Z,6.18
2022-11-17T08:31:56.956Z,5.53
2022-11-17T08:34:27.311Z,9.85
2022-11-17T08:36:57.728Z,5.10
2022-11-17T08:39:28.104Z,6.25
2022-11-17T08:42:01.324Z,6.43
2022-11-17T08:44:32.495Z,8.82
2022-11-17T08:47:04.025Z,7.20
2022-11-17T08:49:34.858Z,9.88
2022-11-17T08:52:06.852Z,8.68
2022-11-17T08:54:37.285Z,10.82
2022-11-17T08:57:08.264Z,11.70
2022-11-17T08:59:39.160Z,10.60
2022-11-17T09:02:09.845Z,13.85
2022-11-17T09:04:43.009Z,17.63
2022-11-17T09:07:13.381Z,14.68
2022-11-17T09:09:44.891Z,11.25
2022-11-17T09:12:15.626Z,10.20
2022-11-17T09:14:46.254Z,13.13
2022-11-17T09:17:17.303Z,16.25
2022-11-17T09:19:47.622Z,10.75
2022-11-17T09:22:21.168Z,14.35
2022-11-17T09:24:51.628Z,24.70
2022-11-17T09:27:22.369Z,22.33
2022-11-17T09:29:53.427Z,18.38
2022-11-17T09:32:23.989Z,24.95
2022-11-17T09:34:54.821Z,20.17
2022-11-17T09:37:27.576Z,33.45
2022-11-17T09:39:58.301Z,30.90
2022-11-17T09:42:32.564Z,24.63
2022-11-17T09:45:17.231Z,20.38
2022-11-17T09:48:34.038Z,24.60
2022-11-17T09:50:59.156Z,16.13
2022-11-17T09:53:41.081Z,17.80
2022-11-17T09:56:13.669Z,17.45
2022-11-17T09:58:48.208Z,26.25
2022-11-17T10:01:20.620Z,25.63
2022-11-17T10:03:52.510Z,25.17
2022-11-17T10:06:30.902Z,38.65
2022-11-17T10:09:31.082Z,27.95
2022-11-17T10:12:22.569Z,12.65
2022-11-17T10:14:54.720Z,20.05
2022-11-17T10:17:25.476Z,26.55
2022-11-17T10:19:58.542Z,19.17
2022-11-17T10:22:37.449Z,18.95
2022-11-17T10:25:41.412Z,20.38
2022-11-17T10:28:28.050Z,22.38
2022-11-17T10:31:02.088Z,23.02
2022-11-17T10:33:50.169Z,28.63
2022-11-17T10:36:33.622Z,23.92
2022-11-17T10:39:04.237Z,17.95
2022-11-17T10:41:43.712Z,22.20
2022-11-17T10:44:26.444Z,21.92
2022-11-17T10:47:02.394Z,23.98
2022-11-17T10:49:36.088Z,24.92
2022-11-17T10:52:19.654Z,19.83
2022-11-17T10:54:50.778Z,25.02
2022-11-17T10:57:26.456Z,16.13
2022-11-17T10:59:58.500Z,20.63
2022-11-17T11:02:40.350Z,13.43
2022-11-17T11:05:14.079Z,14.20
2022-11-17T11:07:46.025Z,13.60
2022-11-17T11:10:19.630Z,13.55
2022-11-17T11:13:14.651Z,14.40
2022-11-17T11:15:46.512Z,11.13
2022-11-17T11:18:20.913Z,12.55
2022-11-17T11:21:18.211Z,9.35
2022-11-17T11:24:15.739Z,8.65
2022-11-17T11:27:07.233Z,8.55
2022-11-17T11:29:51.898Z,7.68
2022-11-17T11:32:54.048Z,8.27
2022-11-17T11:36:03.893Z,7.05
2022-11-17T11:38:43.218Z,7.57
2022-11-17T11:41:22.571Z,10.02
2022-11-17T11:44:31.584Z,6.25
2022-11-17T11:47:33.381Z,10.50
2022-11-17T11:50:25.687Z,9.80
2022-11-17T11:53:05.075Z,10.63
2022-11-17T11:55:37.325Z,9.10
2022-11-17T11:58:19.749Z,10.35
2022-11-17T12:01:13.037Z,5.88
2022-11-17T12:04:26.734Z,11.27
2022-11-17T12:07:08.267Z,8.93
2022-11-17T12:09:44.536Z,10.38
2022-11-17T12:12:21.385Z,8.80
2022-11-17T12:15:20.610Z,6.50
2022-11-17T12:17:54.392Z,9.43
2022-11-17T12:20:41.661Z,7.68
2022-11-17T12:23:30.544Z,8.07
2022-11-17T12:26:02.373Z,6.68
2022-11-17T12:28:42.772Z,5.78
2022-11-17T12:31:26.149Z,6.40
2022-11-17T12:34:03.475Z,7.13
2022-11-17T12:36:35.560Z,6.18
2022-11-17T12:39:09.951Z,7.82
2022-11-17T12:41:53.436Z,4.18
2022-11-17T12:44:44.958Z,6.43
2022-11-17T12:47:31.996Z,14.55
2022-11-17T12:50:14.183Z,6.53
2022-11-17T12:53:27.276Z,8.45
2022-11-17T12:56:06.802Z,7.00
2022-11-17T12:58:55.525Z,9.43
2022-11-17T13:01:47.318Z,10.55
2022-11-17T13:04:49.355Z,6.28
2022-11-17T13:07:23.655Z,6.40
2022-11-17T13:09:59.455Z,7.28
2022-11-17T13:12:34.181Z,6.40
2022-11-17T13:15:07.349Z,7.25
2022-11-17T13:17:46.118Z,9.30
2022-11-17T13:20:28.736Z,9.18
2022-11-17T13:23:07.659Z,7.90
2022-11-17T13:25:38.018Z,9.02
2022-11-17T13:28:29.332Z,7.45
2022-11-17T13:31:01.512Z,7.05
2022-11-17T13:33:39.563Z,6.95
2022-11-17T13:36:18.670Z,9.55
2022-11-17T13:38:51.524Z,9.63
2022-11-17T13:41:25.413Z,11.55
2022-11-17T13:43:56.486Z,9.40
2022-11-17T13:46:27.391Z,8.60
2022-11-17T13:48:58.627Z,6.90
2022-11-17T13:51:43.101Z,7.00
2022-11-17T13:54:13.943Z,8.32
2022-11-17T13:56:47.471Z,6.43
2022-11-17T13:59:32.465Z,5.07
2022-11-17T14:02:17.956Z,4.30
2022-11-17T14:05:17.836Z,8.13
2022-11-17T14:07:49.157Z,7.10
2022-11-17T14:10:29.068Z,5.20
2022-11-17T14:13:04.200Z,7.38
2022-11-17T14:15:40.487Z,7.22
2022-11-17T14:18:43.098Z,6.75
2022-11-17T14:21:19.867Z,8.82
2022-11-17T14:24:04.040Z,6.68
2022-11-17T14:26:35.084Z,5.25
2022-11-17T14:29:05.916Z,9.63
2022-11-17T14:31:36.526Z,8.13
2022-11-17T14:34:07.568Z,5.15
2022-11-17T14:36:40.101Z,6.80
2022-11-17T14:39:16.680Z,8.57
2022-11-17T14:41:48.396Z,6.95
2022-11-17T14:44:19.157Z,9.38
2022-11-17T14:46:49.887Z,6.40
2022-11-17T14:49:20.452Z,4.97
2022-11-17T14:51:51.109Z,6.60
2022-11-17T14:54:21.426Z,9.40
2022-11-17T14:56:52.041Z,5.32
2022-11-17T14:59:22.343Z,8.15
2022-11-17T15:01:54.967Z,8.48
2022-11-17T15:04:49.361Z,7.68
2022-11-17T15:07:17.387Z,7.03
2022-11-17T15:09:48.887Z,11.90
2022-11-17T15:12:20.594Z,10.35
2022-11-17T15:14:51.306Z,12.65
2022-11-17T15:17:21.863Z,13.88
2022-11-17T15:19:52.765Z,10.73
2022-11-17T15:22:24.322Z,8.48
2022-11-17T15:24:57.219Z,7.90
2022-11-17T15:27:27.830Z,8.00
2022-11-17T15:29:58.988Z,6.35
2022-11-17T15:32:29.714Z,6.07
2022-11-17T15:35:16.026Z,4.63
2022-11-17T15:37:49.319Z,5.13
2022-11-17T15:40:20.057Z,6.97
2022-11-17T15:42:54.801Z,6.43
2022-11-17T15:45:25.703Z,6.07
2022-11-17T15:47:56.319Z,6.68
2022-11-17T15:50:28.080Z,4.85
2022-11-17T15:53:04.105Z,5.20
2022-11-17T15:55:38.101Z,3.63
2022-11-17T15:58:08.752Z,6.05
2022-11-17T16:00:41.231Z,5.07
2022-11-17T16:03:11.859Z,5.18
2022-11-17T16:05:42.464Z,4.30
2022-11-17T16:08:15.872Z,4.45
2022-11-17T16:10:46.783Z,4.50
2022-11-17T16:13:18.146Z,6.65
2022-11-17T16:15:53.561Z,5.38
2022-11-17T16:18:24.525Z,8.70
2022-11-17T16:20:57.873Z,10.43
2022-11-17T16:23:31.025Z,9.35
2022-11-17T16:26:03.218Z,11.20
2022-11-17T16:28:33.819Z,7.68
2022-11-17T16:31:21.434Z,8.07
2022-11-17T16:34:02.283Z,9.65
2022-11-17T16:36:38.070Z,12.77
2022-11-17T16:39:12.725Z,14.32
2022-11-17T16:41:46.259Z,12.98
2022-11-17T16:44:18.734Z,15.93
2022-11-17T16:46:50.868Z,12.85
2022-11-17T16:49:22.121Z,11.05
2022-11-17T16:51:57.172Z,11.70
2022-11-17T16:54:28.753Z,12.73
2022-11-17T16:56:59.534Z,11.73
2022-11-17T16:59:29.753Z,13.68
2022-11-17T17:02:00.500Z,7.22
2022-11-17T17:04:31.814Z,10.63
2022-11-17T17:07:02.383Z,11.82
2022-11-17T17:09:34.496Z,13.95
2022-11-17T17:12:06.985Z,11.40
2022-11-17T17:14:37.920Z,9.13
2022-11-17T17:17:08.174Z,10.90
2022-11-17T17:19:39.625Z,7.53
2022-11-17T17:22:10.219Z,9.57
2022-11-17T17:24:40.711Z,7.60
2022-11-17T17:27:11.840Z,9.82
2022-11-17T17:29:43.885Z,7.35
2022-11-17T17:32:14.148Z,9.43
2022-11-17T17:34:44.752Z,9.20
2022-11-17T17:37:15.256Z,9.05
2022-11-17T17:39:45.669Z,11.88
2022-11-17T17:42:16.574Z,12.50
2022-11-17T17:44:47.036Z,11.43
2022-11-17T17:47:17.866Z,13.90
2022-11-17T17:49:48.165Z,11.95
2022-11-17T17:52:19.883Z,9.00
2022-11-17T17:54:51.145Z,12.65
2022-11-17T17:57:29.915Z,15.60
2022-11-17T18:00:08.135Z,16.17
2022-11-17T18:02:38.398Z,18.85
2022-11-17T18:05:09.293Z,17.52
2022-11-17T18:07:40.187Z,19.77
2022-11-17T18:10:11.269Z,16.38
2022-11-17T18:12:45.453Z,18.70
2022-11-17T18:15:16.327Z,18.55
2022-11-17T18:17:47.390Z,15.00
2022-11-17T18:20:18.170Z,18.92
2022-11-17T18:22:48.669Z,16.30
2022-11-17T18:25:21.532Z,19.05
2022-11-17T18:27:53.476Z,14.07
2022-11-17T18:30:26.782Z,15.45
2022-11-17T18:33:02.814Z,14.75
2022-11-17T18:35:35.044Z,14.30
2022-11-17T18:38:05.545Z,14.13
2022-11-17T18:40:37.167Z,15.13
2022-11-17T18:43:07.524Z,11.52
2022-11-17T18:45:39.334Z,13.05
2022-11-17T18:48:10.769Z,12.20
2022-11-17T18:51:17.328Z,9.52
2022-11-17T18:53:36.181Z,11.20
2022-11-17T18:56:17.509Z,11.40
2022-11-17T18:58:48.092Z,13.05
2022-11-17T19:01:26.293Z,11.02
2022-11-17T19:03:59.257Z,8.15
2022-11-17T19:06:30.995Z,8.30
2022-11-17T19:09:02.212Z,8.38
2022-11-17T19:11:35.463Z,7.13
2022-11-17T19:14:06.979Z,8.07
2022-11-17T19:16:44.847Z,10.80
2022-11-17T19:19:15.987Z,9.05
2022-11-17T19:21:49.743Z,10.27
2022-11-17T19:24:20.244Z,16.42
2022-11-17T19:26:50.787Z,9.57
2022-11-17T19:29:22.047Z,11.27
2022-11-17T19:31:53.612Z,7.32
2022-11-17T19:34:24.136Z,7.53
2022-11-17T19:36:54.723Z,12.02
2022-11-17T19:39:26.301Z,12.25
2022-11-17T19:41:56.851Z,9.75
2022-11-17T19:44:29.632Z,11.15
2022-11-17T19:47:00.914Z,12.68
2022-11-17T19:49:31.872Z,12.05
2022-11-17T19:52:02.325Z,11.23
2022-11-17T19:54:33.218Z,12.95
2022-11-17T19:57:04.264Z,13.25
2022-11-17T19:59:34.533Z,13.30
2022-11-17T20:02:04.898Z,10.25
2022-11-17T20:04:35.753Z,10.70
2022-11-17T20:07:06.812Z,13.30
2022-11-17T20:09:40.643Z,13.32
2022-11-17T20:12:12.415Z,14.73
2022-11-17T20:14:43.335Z,11.88
2022-11-17T20:17:14.067Z,14.75
2022-11-17T20:19:44.949Z,11.75
2022-11-17T20:22:18.359Z,14.73
2022-11-17T20:24:49.291Z,13.98
2022-11-17T20:27:19.598Z,11.73
2022-11-17T20:29:50.498Z,13.27
2022-11-17T20:32:20.877Z,12.10
2022-11-17T20:34:51.580Z,15.20
2022-11-17T20:37:23.671Z,14.70
2022-11-17T20:39:54.052Z,14.85
2022-11-17T20:42:24.485Z,11.57
2022-11-17T20:44:55.027Z,14.20
2022-11-17T20:47:28.393Z,18.60
2022-11-17T20:49:58.917Z,15.65
2022-11-17T20:52:29.536Z,20.60
2022-11-17T20:55:01.810Z,12.73
2022-11-17T20:57:32.598Z,14.93
2022-11-17T21:00:02.773Z,15.73
2022-11-17T21:02:36.779Z,14.80
2022-11-17T21:05:08.247Z,17.77
2022-11-17T21:07:39.822Z,17.35
2022-11-17T21:10:11.123Z,18.40
2022-11-17T21:12:42.137Z,16.40
2022-11-17T21:15:13.530Z,16.58
2022-11-17T21:18:02.218Z,17.00
2022-11-17T21:20:35.808Z,18.98
2022-11-17T21:23:06.674Z,15.50
2022-11-17T21:25:39.492Z,13.05
2022-11-17T21:28:10.400Z,19.10
2022-11-17T21:30:43.290Z,18.05
2022-11-17T21:33:14.113Z,15.07
2022-11-17T21:35:45.306Z,22.63
2022-11-17T21:38:18.858Z,21.67
2022-11-17T21:40:49.259Z,25.20
2022-11-17T21:43:20.218Z,23.48
2022-11-17T21:45:50.741Z,25.10
2022-11-17T21:48:21.384Z,19.65
2022-11-17T21:50:54.375Z,30.55
2022-11-17T21:53:25.148Z,28.92
2022-11-17T21:56:02.481Z,22.58
2022-11-17T21:58:34.374Z,29.27
2022-11-17T22:01:10.572Z,24.83
2022-11-17T22:03:42.281Z,22.88
2022-11-17T22:06:19.084Z,24.80
2022-11-17T22:08:50.891Z,27.50
2022-11-17T22:11:39.319Z,24.65
2022-11-17T22:14:14.713Z,39.40
2022-11-17T22:16:50.330Z,30.73
2022-11-17T22:19:22.293Z,32.30
2022-11-17T22:21:54.625Z,38.47
2022-11-17T22:24:25.399Z,35.95
2022-11-17T22:26:56.232Z,33.13
2022-11-17T22:29:26.830Z,32.90
2022-11-17T22:31:57.457Z,33.42
2022-11-17T22:34:28.296Z,30.73
2022-11-17T22:36:59.669Z,31.35
2022-11-17T22:39:30.828Z,30.10
2022-11-17T22:42:01.205Z,30.92
2022-11-17T22:44:31.690Z,27.52
2022-11-17T22:47:03.069Z,34.65
2022-11-17T22:49:34.336Z,31.50
2022-11-17T22:52:04.967Z,26.05
2022-11-17T22:54:36.435Z,29.58
2022-11-17T22:57:07.465Z,25.75
2022-11-17T22:59:38.054Z,31.77
2022-11-17T23:02:08.970Z,35.15
2022-11-17T23:04:42.239Z,40.80
2022-11-17T23:07:13.151Z,31.30
2022-11-17T23:09:43.841Z,30.80
2022-11-17T23:12:15.661Z,36.20
2022-11-17T23:14:46.527Z,32.65
2022-11-17T23:17:19.288Z,31.02
2022-11-17T23:19:50.265Z,35.40
2022-11-17T23:22:21.507Z,31.00
2022-11-17T23:24:52.184Z,32.50
2022-11-17T23:27:23.491Z,33.45
2022-11-17T23:29:57.419Z,28.55
2022-11-17T23:32:28.173Z,32.22
2022-11-17T23:34:58.991Z,31.55
2022-11-17T23:37:30.259Z,30.25
2022-11-17T23:40:00.578Z,27.10
2022-11-17T23:42:40.103Z,25.48
2022-11-17T23:45:14.431Z,28.33
2022-11-17T23:47:45.040Z,25.80
2022-11-17T23:50:16.956Z,32.15
2022-11-17T23:52:47.619Z,27.73
2022-11-17T23:55:19.124Z,44.50
2022-11-17T23:57:50.534Z,45.33
